createdAt,value
2018-10-02T00:02:04.394Z,14.49
2018-10-02T00:04:31.724Z,14.74
2018-10-02T00:06:59.014Z,14.40
2018-10-02T00:09:26.850Z,14.66
2018-10-02T00:11:59.810Z,14.71
2018-10-02T00:14:28.723Z,14.08
2018-10-02T00:16:56.468Z,14.42
2018-10-02T00:19:23.950Z,14.12
2018-10-02T00:21:51.260Z,13.91
2018-10-02T00:24:18.779Z,14.42
2018-10-02T00:26:46.113Z,14.19
2018-10-02T00:29:13.749Z,14.08
2018-10-02T00:31:41.034Z,14.23
2018-10-02T00:34:08.799Z,14.41
2018-10-02T00:36:36.142Z,14.09
2018-10-02T00:39:04.507Z,13.92
2018-10-02T00:41:31.771Z,14.07
2018-10-02T00:43:59.113Z,14.08
2018-10-02T00:46:26.480Z,13.99
2018-10-02T00:48:53.803Z,14.30
2018-10-02T00:51:21.125Z,13.84
2018-10-02T00:53:48.511Z,14.23
2018-10-02T00:56:15.928Z,13.90
2018-10-02T00:58:43.175Z,14.09
2018-10-02T01:01:10.450Z,13.87
2018-10-02T01:03:37.761Z,14.20
2018-10-02T01:06:05.283Z,14.51
2018-10-02T01:08:32.696Z,13.87
2018-10-02T01:11:00.051Z,14.16
2018-10-02T01:13:27.457Z,14.12
2018-10-02T01:15:54.705Z,14.13
2018-10-02T01:18:22.012Z,14.41
2018-10-02T01:20:49.271Z,13.96
2018-10-02T01:23:16.602Z,13.97
2018-10-02T01:25:43.892Z,14.28
2018-10-02T01:28:11.133Z,14.43
2018-10-02T01:30:38.423Z,14.07
2018-10-02T01:33:05.992Z,14.51
2018-10-02T01:35:33.254Z,14.01
2018-10-02T01:38:00.518Z,14.14
2018-10-02T01:40:27.748Z,14.02
2018-10-02T01:42:55.046Z,13.79
2018-10-02T01:45:22.490Z,13.81
2018-10-02T01:47:49.764Z,13.83
2018-10-02T01:50:17.026Z,14.08
2018-10-02T01:52:45.076Z,14.03
2018-10-02T01:55:12.683Z,13.34
2018-10-02T01:57:40.006Z,13.54
2018-10-02T02:00:07.594Z,13.86
2018-10-02T02:02:35.071Z,13.87
2018-10-02T02:05:02.348Z,13.59
2018-10-02T02:07:29.781Z,14.08
2018-10-02T02:09:57.034Z,14.11
2018-10-02T02:12:24.286Z,13.47
2018-10-02T02:14:51.725Z,13.33
2018-10-02T02:17:19.045Z,13.54
2018-10-02T02:19:46.420Z,13.08
2018-10-02T02:22:13.661Z,13.76
2018-10-02T02:24:40.936Z,13.73
2018-10-02T02:27:08.313Z,13.39
2018-10-02T02:29:35.605Z,14.02
2018-10-02T02:32:02.953Z,13.99
2018-10-02T02:34:30.179Z,13.82
2018-10-02T02:36:57.633Z,13.90
2018-10-02T02:39:24.871Z,13.64
2018-10-02T02:41:52.148Z,13.74
2018-10-02T02:44:20.048Z,13.82
2018-10-02T02:46:47.445Z,13.77
2018-10-02T02:49:20.494Z,14.01
2018-10-02T02:51:47.991Z,13.59
2018-10-02T02:54:15.253Z,13.59
2018-10-02T02:56:42.512Z,13.43
2018-10-02T02:59:09.782Z,13.68
2018-10-02T03:01:37.125Z,13.29
2018-10-02T03:04:04.406Z,13.61
2018-10-02T03:06:31.730Z,13.45
2018-10-02T03:08:59.548Z,13.63
2018-10-02T03:11:27.036Z,13.54
2018-10-02T03:13:55.042Z,12.96
2018-10-02T03:16:22.326Z,13.13
2018-10-02T03:18:49.676Z,13.39
2018-10-02T03:21:17.160Z,13.11
2018-10-02T03:23:44.515Z,13.44
2018-10-02T03:26:12.058Z,13.30
2018-10-02T03:28:39.434Z,13.39
2018-10-02T03:31:06.754Z,13.53
2018-10-02T03:33:34.055Z,12.94
2018-10-02T03:36:01.369Z,13.07
2018-10-02T03:38:28.728Z,13.39
2018-10-02T03:40:55.999Z,12.91
2018-10-02T03:43:23.707Z,13.31
2018-10-02T03:45:50.978Z,13.43
2018-10-02T03:48:18.313Z,13.07
2018-10-02T03:50:45.676Z,13.22
2018-10-02T03:53:12.954Z,13.03
2018-10-02T03:55:40.201Z,13.28
2018-10-02T03:58:07.521Z,13.11
2018-10-02T04:00:35.411Z,13.05
2018-10-02T04:03:02.729Z,12.70
2018-10-02T04:05:30.122Z,13.15
2018-10-02T04:07:57.622Z,13.28
2018-10-02T04:10:25.489Z,13.09
2018-10-02T04:12:52.876Z,13.40
2018-10-02T04:15:20.186Z,13.60
2018-10-02T04:17:47.713Z,13.53
2018-10-02T04:20:15.144Z,13.56
2018-10-02T04:22:42.386Z,13.26
2018-10-02T04:25:09.672Z,13.49
2018-10-02T04:27:37.066Z,13.90
2018-10-02T04:30:05.056Z,13.12
2018-10-02T04:32:32.422Z,12.96
2018-10-02T04:34:59.694Z,13.14
2018-10-02T04:37:26.952Z,13.35
2018-10-02T04:39:54.194Z,13.32
2018-10-02T04:42:21.535Z,13.62
2018-10-02T04:44:48.871Z,13.54
2018-10-02T04:47:16.268Z,14.01
2018-10-02T04:49:43.496Z,13.56
2018-10-02T04:52:10.774Z,13.64
2018-10-02T04:54:38.130Z,13.34
2018-10-02T04:57:05.481Z,13.94
2018-10-02T04:59:32.883Z,13.75
2018-10-02T05:02:00.177Z,13.51
2018-10-02T05:04:27.545Z,13.60
2018-10-02T05:06:55.610Z,13.48
2018-10-02T05:09:22.873Z,14.02
2018-10-02T05:11:50.123Z,13.79
2018-10-02T05:14:17.462Z,13.93
2018-10-02T05:16:44.697Z,13.63
2018-10-02T05:19:11.983Z,13.55
2018-10-02T05:21:39.356Z,14.12
2018-10-02T05:24:07.117Z,13.77
2018-10-02T05:26:34.391Z,14.05
2018-10-02T05:29:01.957Z,14.21
2018-10-02T05:31:29.424Z,14.19
2018-10-02T05:33:56.844Z,14.26
2018-10-02T05:36:24.105Z,14.04
2018-10-02T05:38:51.386Z,13.34
2018-10-02T05:41:18.648Z,13.83
2018-10-02T05:43:45.984Z,14.53
2018-10-02T05:46:13.341Z,14.68
2018-10-02T05:48:40.776Z,14.14
2018-10-02T05:51:08.060Z,13.88
2018-10-02T05:53:35.899Z,13.83
2018-10-02T05:56:03.546Z,14.08
2018-10-02T05:58:30.894Z,14.57
2018-10-02T06:00:58.255Z,14.19
2018-10-02T06:03:25.720Z,14.41
2018-10-02T06:05:53.084Z,14.42
2018-10-02T06:08:20.538Z,14.54
2018-10-02T06:10:47.949Z,14.50
2018-10-02T06:13:15.303Z,14.10
2018-10-02T06:15:42.687Z,13.96
2018-10-02T06:18:10.021Z,14.11
2018-10-02T06:20:37.364Z,13.97
2018-10-02T06:23:04.752Z,14.69
2018-10-02T06:25:32.076Z,14.24
2018-10-02T06:27:59.527Z,14.04
2018-10-02T06:30:26.803Z,14.15
2018-10-02T06:32:54.092Z,13.89
2018-10-02T06:35:21.387Z,14.63
2018-10-02T06:37:48.667Z,14.85
2018-10-02T06:40:16.093Z,14.74
2018-10-02T06:42:43.347Z,14.14
2018-10-02T06:45:10.673Z,14.40
2018-10-02T06:47:38.331Z,14.76
2018-10-02T06:50:05.730Z,14.08
2018-10-02T06:52:33.323Z,14.36
2018-10-02T06:55:00.797Z,14.57
2018-10-02T06:57:28.075Z,15.06
2018-10-02T06:59:55.392Z,14.10
2018-10-02T07:02:22.685Z,14.54
2018-10-02T07:04:49.977Z,14.78
2018-10-02T07:07:17.271Z,15.03
2018-10-02T07:09:44.581Z,14.51
2018-10-02T07:12:11.845Z,14.62
2018-10-02T07:14:39.284Z,14.43
2018-10-02T07:17:06.722Z,14.36
2018-10-02T07:19:34.012Z,14.37
2018-10-02T07:22:01.319Z,15.11
2018-10-02T07:24:28.636Z,14.95
2018-10-02T07:26:56.827Z,15.21
2018-10-02T07:29:24.468Z,14.75
2018-10-02T07:31:51.766Z,14.73
2018-10-02T07:34:19.039Z,14.86
2018-10-02T07:36:46.366Z,14.89
2018-10-02T07:39:13.627Z,15.12
2018-10-02T07:41:41.042Z,15.04
2018-10-02T07:44:08.547Z,15.19
2018-10-02T07:46:36.541Z,15.14
2018-10-02T07:49:04.031Z,15.10
2018-10-02T07:51:31.347Z,14.75
2018-10-02T07:53:59.378Z,15.09
2018-10-02T07:56:27.417Z,15.31
2018-10-02T07:58:55.361Z,14.93
2018-10-02T08:01:22.675Z,15.28
2018-10-02T08:03:50.002Z,15.27
2018-10-02T08:06:17.422Z,15.14
2018-10-02T08:08:44.782Z,14.44
2018-10-02T08:11:12.922Z,14.71
2018-10-02T08:13:40.536Z,14.83
2018-10-02T08:16:07.988Z,14.51
2018-10-02T08:18:35.425Z,14.82
2018-10-02T08:21:02.837Z,14.94
2018-10-02T08:23:30.290Z,15.09
2018-10-02T08:25:57.604Z,15.02
2018-10-02T08:28:25.490Z,15.28
2018-10-02T08:30:52.890Z,14.50
2018-10-02T08:33:20.202Z,15.18
2018-10-02T08:35:47.739Z,14.63
2018-10-02T08:38:14.925Z,14.99
2018-10-02T08:40:42.516Z,14.98
2018-10-02T08:43:10.061Z,15.38
2018-10-02T08:45:38.819Z,15.35
2018-10-02T08:48:06.282Z,15.74
2018-10-02T08:50:33.975Z,15.76
2018-10-02T08:53:01.350Z,15.95
2018-10-02T08:55:28.733Z,15.82
2018-10-02T08:57:56.192Z,15.52
2018-10-02T09:00:23.749Z,15.60
2018-10-02T09:02:51.377Z,15.84
2018-10-02T09:05:18.767Z,15.90
2018-10-02T09:07:46.037Z,15.27
2018-10-02T09:10:13.525Z,15.13
2018-10-02T09:12:40.927Z,15.44
2018-10-02T09:15:12.158Z,15.51
2018-10-02T09:17:35.695Z,15.41
2018-10-02T09:20:03.341Z,14.81
2018-10-02T09:22:30.637Z,15.22
2018-10-02T09:24:58.020Z,15.22
2018-10-02T09:27:25.227Z,15.34
2018-10-02T09:29:58.193Z,15.20
2018-10-02T09:32:31.185Z,15.38
2018-10-02T09:35:04.229Z,15.56
2018-10-02T09:37:37.275Z,15.61
2018-10-02T09:40:10.495Z,15.00
2018-10-02T09:42:43.617Z,15.00
2018-10-02T09:45:11.093Z,15.16
2018-10-02T09:47:39.008Z,15.80
2018-10-02T09:50:06.350Z,15.18
2018-10-02T09:52:33.943Z,15.51
2018-10-02T09:55:01.241Z,16.04
2018-10-02T09:57:28.560Z,15.38
2018-10-02T09:59:55.970Z,15.40
2018-10-02T10:02:28.808Z,15.09
2018-10-02T10:04:56.112Z,15.23
2018-10-02T10:07:24.161Z,15.64
2018-10-02T10:09:51.474Z,15.74
2018-10-02T10:12:18.781Z,15.66
2018-10-02T10:14:46.308Z,15.18
2018-10-02T10:17:13.801Z,15.60
2018-10-02T10:19:41.053Z,16.11
2018-10-02T10:22:08.336Z,15.19
2018-10-02T10:24:35.742Z,15.44
2018-10-02T10:27:03.024Z,15.21
2018-10-02T10:29:30.329Z,15.11
2018-10-02T10:31:57.631Z,15.50
2018-10-02T10:34:25.102Z,15.69
2018-10-02T10:36:52.362Z,15.79
2018-10-02T10:39:20.103Z,16.14
2018-10-02T10:41:47.558Z,16.41
2018-10-02T10:44:15.499Z,15.89
2018-10-02T10:46:43.007Z,15.69
2018-10-02T10:49:10.367Z,15.25
2018-10-02T10:51:37.866Z,15.62
2018-10-02T10:54:05.174Z,15.64
2018-10-02T10:56:32.583Z,15.44
2018-10-02T10:58:59.804Z,15.75
2018-10-02T11:01:27.085Z,15.58
2018-10-02T11:03:54.438Z,16.00
2018-10-02T11:06:21.782Z,15.87
2018-10-02T11:08:49.162Z,15.96
2018-10-02T11:11:17.001Z,15.65
2018-10-02T11:13:44.285Z,15.65
2018-10-02T11:16:11.675Z,15.62
2018-10-02T11:18:39.094Z,15.53
2018-10-02T11:21:06.408Z,14.95
2018-10-02T11:23:34.105Z,16.15
2018-10-02T11:26:02.016Z,15.98
2018-10-02T11:28:29.428Z,14.86
2018-10-02T11:30:57.586Z,16.01
2018-10-02T11:33:24.901Z,15.65
2018-10-02T11:35:52.332Z,15.76
2018-10-02T11:38:19.668Z,15.97
2018-10-02T11:40:47.346Z,16.17
2018-10-02T11:43:14.653Z,16.20
2018-10-02T11:45:42.380Z,15.90
2018-10-02T11:48:09.765Z,15.71
2018-10-02T11:50:37.226Z,15.61
2018-10-02T11:53:04.944Z,15.60
2018-10-02T11:55:32.294Z,15.84
2018-10-02T11:57:59.673Z,16.36
2018-10-02T12:00:27.131Z,15.82
2018-10-02T12:02:54.652Z,15.56
2018-10-02T12:05:21.988Z,15.62
2018-10-02T12:07:49.387Z,15.56
2018-10-02T12:10:16.663Z,15.80
2018-10-02T12:12:43.985Z,16.11
2018-10-02T12:15:11.592Z,15.59
2018-10-02T12:17:42.597Z,15.03
2018-10-02T12:20:10.049Z,15.54
2018-10-02T12:22:37.346Z,15.68
2018-10-02T12:25:04.677Z,15.57
2018-10-02T12:27:32.027Z,15.87
2018-10-02T12:29:59.371Z,15.94
2018-10-02T12:32:26.811Z,16.01
2018-10-02T12:34:54.166Z,16.41
2018-10-02T12:37:21.519Z,16.66
2018-10-02T12:39:48.881Z,16.53
2018-10-02T12:42:16.160Z,16.20
2018-10-02T12:44:43.436Z,15.79
2018-10-02T12:47:10.745Z,15.44
2018-10-02T12:49:38.135Z,15.71
2018-10-02T12:52:05.429Z,16.25
2018-10-02T12:54:32.853Z,16.11
2018-10-02T12:57:00.270Z,16.43
2018-10-02T12:59:27.722Z,16.05
2018-10-02T13:01:54.970Z,16.02
2018-10-02T13:04:22.355Z,16.50
2018-10-02T13:06:49.735Z,15.91
2018-10-02T13:09:17.098Z,16.61
2018-10-02T13:11:44.386Z,16.39
2018-10-02T13:14:11.790Z,16.01
2018-10-02T13:16:39.207Z,15.61
2018-10-02T13:19:06.510Z,15.95
2018-10-02T13:21:33.873Z,15.76
2018-10-02T13:24:01.180Z,15.85
2018-10-02T13:26:28.525Z,15.90
2018-10-02T13:29:00.292Z,16.51
2018-10-02T13:31:27.604Z,16.53
2018-10-02T13:33:54.892Z,15.90
2018-10-02T13:36:22.160Z,16.50
2018-10-02T13:38:49.460Z,15.96
2018-10-02T13:41:16.745Z,16.00
2018-10-02T13:43:44.051Z,16.41
2018-10-02T13:46:11.387Z,15.90
2018-10-02T13:48:38.711Z,15.92
2018-10-02T13:51:06.278Z,16.01
2018-10-02T13:53:33.571Z,16.57
2018-10-02T13:56:00.961Z,16.08
2018-10-02T13:58:28.262Z,16.90
2018-10-02T14:00:55.673Z,16.60
2018-10-02T14:03:23.003Z,16.58
2018-10-02T14:05:50.302Z,16.42
2018-10-02T14:08:17.772Z,16.35
2018-10-02T14:10:45.031Z,16.90
2018-10-02T14:13:12.355Z,16.74
2018-10-02T14:15:39.674Z,16.49
2018-10-02T14:18:06.955Z,16.45
2018-10-02T14:20:34.283Z,16.80
2018-10-02T14:23:01.650Z,16.34
2018-10-02T14:25:28.917Z,16.93
2018-10-02T14:27:56.264Z,16.95
2018-10-02T14:30:23.570Z,16.40
2018-10-02T14:32:50.886Z,16.45
2018-10-02T14:35:18.249Z,16.41
2018-10-02T14:37:45.589Z,16.63
2018-10-02T14:40:12.888Z,16.88
2018-10-02T14:42:40.224Z,17.01
2018-10-02T14:45:07.529Z,17.19
2018-10-02T14:47:34.892Z,17.01
2018-10-02T14:50:02.188Z,17.42
2018-10-02T14:52:29.610Z,17.10
2018-10-02T14:54:56.930Z,16.84
2018-10-02T14:57:24.262Z,16.75
2018-10-02T14:59:52.216Z,17.28
2018-10-02T15:02:19.466Z,17.06
2018-10-02T15:04:47.493Z,16.88
2018-10-02T15:07:14.762Z,17.31
2018-10-02T15:09:42.842Z,17.21
2018-10-02T15:12:10.884Z,17.64
2018-10-02T15:14:38.281Z,17.29
2018-10-02T15:17:05.673Z,17.28
2018-10-02T15:19:32.972Z,17.89
2018-10-02T15:22:00.625Z,17.29
2018-10-02T15:24:28.945Z,17.08
2018-10-02T15:26:57.595Z,18.00
2018-10-02T15:29:24.865Z,17.41
2018-10-02T15:31:52.257Z,17.79
2018-10-02T15:34:19.587Z,17.21
2018-10-02T15:36:46.877Z,17.65
2018-10-02T15:39:14.349Z,17.62
2018-10-02T15:41:42.177Z,17.84
2018-10-02T15:44:10.227Z,17.94
2018-10-02T15:46:37.546Z,18.06
2018-10-02T15:49:05.439Z,17.65
2018-10-02T15:51:32.772Z,17.59
2018-10-02T15:54:00.447Z,17.76
2018-10-02T15:56:27.884Z,18.40
2018-10-02T15:58:55.254Z,17.77
2018-10-02T16:01:22.740Z,18.13
2018-10-02T16:03:50.709Z,18.51
2018-10-02T16:06:18.055Z,18.27
2018-10-02T16:08:45.376Z,18.09
2018-10-02T16:11:12.791Z,18.38
2018-10-02T16:13:40.136Z,18.15
2018-10-02T16:16:08.152Z,18.30
2018-10-02T16:18:36.045Z,18.05
2018-10-02T16:21:03.439Z,18.36
2018-10-02T16:23:30.729Z,18.38
2018-10-02T16:25:58.136Z,18.58
2018-10-02T16:28:25.458Z,18.64
2018-10-02T16:30:52.906Z,18.32
2018-10-02T16:33:20.242Z,18.47
2018-10-02T16:35:47.582Z,18.46
2018-10-02T16:38:15.035Z,18.30
2018-10-02T16:40:42.452Z,18.17
2018-10-02T16:43:09.680Z,18.16
2018-10-02T16:45:37.054Z,18.80
2018-10-02T16:48:04.468Z,18.93
2018-10-02T16:50:31.840Z,19.08
2018-10-02T16:52:59.301Z,18.56
2018-10-02T16:55:26.605Z,19.01
2018-10-02T16:57:54.051Z,19.11
2018-10-02T17:00:21.449Z,18.98
2018-10-02T17:02:48.743Z,18.86
2018-10-02T17:05:16.121Z,19.33
2018-10-02T17:07:43.565Z,18.95
2018-10-02T17:10:10.965Z,18.94
2018-10-02T17:12:39.352Z,18.92
2018-10-02T17:15:07.227Z,18.75
2018-10-02T17:17:34.520Z,18.74
2018-10-02T17:20:01.945Z,19.32
2018-10-02T17:22:29.439Z,19.04
2018-10-02T17:24:58.088Z,19.27
2018-10-02T17:27:25.623Z,19.13
2018-10-02T17:29:52.927Z,19.22
2018-10-02T17:32:20.399Z,19.16
2018-10-02T17:34:47.659Z,19.48
2018-10-02T17:37:14.947Z,19.44
2018-10-02T17:39:42.221Z,19.06
2018-10-02T17:42:09.635Z,18.88
2018-10-02T17:44:37.014Z,18.38
2018-10-02T17:47:04.341Z,18.88
2018-10-02T17:49:31.729Z,19.38
2018-10-02T17:51:59.018Z,19.10
2018-10-02T17:54:26.408Z,19.25
2018-10-02T17:56:53.912Z,19.54
2018-10-02T17:59:21.289Z,19.44
2018-10-02T18:01:48.605Z,18.41
2018-10-02T18:04:15.873Z,19.49
2018-10-02T18:06:43.316Z,19.86
2018-10-02T18:09:10.809Z,19.45
2018-10-02T18:11:38.224Z,19.40
2018-10-02T18:14:05.512Z,19.48
2018-10-02T18:16:32.838Z,19.69
2018-10-02T18:19:00.173Z,19.36
2018-10-02T18:21:28.416Z,19.42
2018-10-02T18:23:55.805Z,19.60
2018-10-02T18:26:23.224Z,19.42
2018-10-02T18:28:56.609Z,19.75
2018-10-02T18:31:24.200Z,19.06
2018-10-02T18:33:51.500Z,19.50
2018-10-02T18:36:18.952Z,19.91
2018-10-02T18:38:46.383Z,19.74
2018-10-02T18:41:13.712Z,19.58
2018-10-02T18:43:41.105Z,19.58
2018-10-02T18:46:08.420Z,19.42
2018-10-02T18:48:35.714Z,18.93
2018-10-02T18:51:03.038Z,19.26
2018-10-02T18:53:30.361Z,19.47
2018-10-02T18:55:57.809Z,19.82
2018-10-02T18:58:25.162Z,19.51
2018-10-02T19:00:52.473Z,19.53
2018-10-02T19:03:19.780Z,19.18
2018-10-02T19:05:47.121Z,19.48
2018-10-02T19:08:14.628Z,19.41
2018-10-02T19:10:42.074Z,19.23
2018-10-02T19:13:09.492Z,19.31
2018-10-02T19:15:43.413Z,19.26
2018-10-02T19:18:10.756Z,19.62
2018-10-02T19:20:52.911Z,19.29
2018-10-02T19:23:20.374Z,19.51
2018-10-02T19:25:53.344Z,19.60
2018-10-02T19:28:20.715Z,19.79
2018-10-02T19:31:57.162Z,19.53
2018-10-02T19:34:24.505Z,19.84
2018-10-02T19:36:51.807Z,19.88
2018-10-02T19:39:21.127Z,19.81
2018-10-02T19:41:48.523Z,20.08
2018-10-02T19:44:15.867Z,19.40
2018-10-02T19:46:48.694Z,19.91
2018-10-02T19:49:18.315Z,19.61
2018-10-02T19:51:51.799Z,19.92
2018-10-02T19:54:19.214Z,20.60
2018-10-02T19:56:46.615Z,20.08
2018-10-02T19:59:14.509Z,20.44
2018-10-02T20:01:41.857Z,20.10
2018-10-02T20:04:09.241Z,20.18
2018-10-02T20:06:36.463Z,20.17
2018-10-02T20:09:05.381Z,20.34
2018-10-02T20:11:32.775Z,19.60
2018-10-02T20:14:00.323Z,20.01
2018-10-02T20:16:27.857Z,19.84
2018-10-02T20:18:55.192Z,19.21
2018-10-02T20:21:22.569Z,20.00
2018-10-02T20:23:49.885Z,19.78
2018-10-02T20:26:17.427Z,19.81
2018-10-02T20:28:44.812Z,19.57
2018-10-02T20:31:12.144Z,19.63
2018-10-02T20:33:40.012Z,19.51
2018-10-02T20:36:07.496Z,19.54
2018-10-02T20:38:34.803Z,19.13
2018-10-02T20:41:02.381Z,19.05
2018-10-02T20:43:29.676Z,19.46
2018-10-02T20:45:57.451Z,19.34
2018-10-02T20:48:24.795Z,19.70
2018-10-02T20:50:52.300Z,19.38
2018-10-02T20:53:20.445Z,19.76
2018-10-02T20:55:47.906Z,19.27
2018-10-02T20:58:15.512Z,19.05
2018-10-02T21:00:42.846Z,18.81
2018-10-02T21:03:10.242Z,19.07
2018-10-02T21:05:37.529Z,18.98
2018-10-02T21:08:04.814Z,19.21
2018-10-02T21:10:32.304Z,19.34
2018-10-02T21:12:59.741Z,19.32
2018-10-02T21:15:27.101Z,19.65
2018-10-02T21:17:54.511Z,18.87
2018-10-02T21:20:21.956Z,18.81
2018-10-02T21:22:49.315Z,18.95
2018-10-02T21:25:16.677Z,19.41
2018-10-02T21:27:44.134Z,18.70
2018-10-02T21:30:11.395Z,19.13
2018-10-02T21:32:38.907Z,18.59
2018-10-02T21:35:06.218Z,18.86
2018-10-02T21:37:33.677Z,18.87
2018-10-02T21:40:01.012Z,18.97
2018-10-02T21:42:28.319Z,19.10
2018-10-02T21:44:55.636Z,19.10
2018-10-02T21:47:29.641Z,18.99
2018-10-02T21:49:57.037Z,19.05
2018-10-02T21:52:24.308Z,18.97
2018-10-02T21:54:51.592Z,18.66
2018-10-02T21:57:18.904Z,18.89
2018-10-02T21:59:46.146Z,18.90
2018-10-02T22:02:13.529Z,19.09
2018-10-02T22:04:41.150Z,18.58
2018-10-02T22:07:08.675Z,18.66
2018-10-02T22:09:36.035Z,18.64
2018-10-02T22:12:03.607Z,18.19
2018-10-02T22:14:30.908Z,18.34
2018-10-02T22:16:58.218Z,18.34
2018-10-02T22:19:25.652Z,18.42
2018-10-02T22:21:52.984Z,18.31
2018-10-02T22:24:20.327Z,18.59
2018-10-02T22:26:47.611Z,18.83
2018-10-02T22:29:15.046Z,18.70
2018-10-02T22:31:42.379Z,18.68
2018-10-02T22:34:09.691Z,19.10
2018-10-02T22:36:37.033Z,19.30
2018-10-02T22:39:05.865Z,18.87
2018-10-02T22:41:33.143Z,18.69
2018-10-02T22:44:00.570Z,18.23
2018-10-02T22:46:27.853Z,18.73
2018-10-02T22:48:55.199Z,18.78
2018-10-02T22:51:22.634Z,18.44
2018-10-02T22:53:49.951Z,18.42
2018-10-02T22:56:17.235Z,18.59
2018-10-02T22:58:44.551Z,18.34
2018-10-02T23:01:11.850Z,18.21
2018-10-02T23:03:39.132Z,18.66
2018-10-02T23:06:06.417Z,18.63
2018-10-02T23:08:33.691Z,17.77
2018-10-02T23:11:00.981Z,17.92
2018-10-02T23:13:28.309Z,17.97
2018-10-02T23:15:55.622Z,18.02
2018-10-02T23:18:22.886Z,18.49
2018-10-02T23:20:50.207Z,17.69
2018-10-02T23:23:17.517Z,17.96
2018-10-02T23:25:44.767Z,17.73
2018-10-02T23:28:12.091Z,17.97
2018-10-02T23:30:39.368Z,18.03
2018-10-02T23:33:06.839Z,18.35
2018-10-02T23:35:34.137Z,18.39
2018-10-02T23:38:01.511Z,17.96
2018-10-02T23:40:28.816Z,18.17
2018-10-02T23:42:56.209Z,17.57
2018-10-02T23:45:23.504Z,17.38
2018-10-02T23:47:50.751Z,17.57
2018-10-02T23:50:18.027Z,17.45
2018-10-02T23:52:45.357Z,17.61
2018-10-02T23:55:12.614Z,17.40
2018-10-02T23:57:39.928Z,17.99
